Aviation Digital Data Service (ADDS)

Output produced by METARs form (0647 UTC 30 March 2017)
found at http://aviationweather.gov/adds/metars/
 
KAEX 300520Z 3006/3106 16013G21KT P6SM VCTS SCT030CB BKN040 
     FM300700 17011KT P6SM VCSH OVC015 
     FM301300 26008KT P6SM BKN025 
     FM301500 28009KT P6SM BKN250